createdAt,value
2022-09-02T00:01:53.230Z,101655.73
2022-09-02T00:07:00.694Z,101652.25
2022-09-02T00:12:28.479Z,101652.34
2022-09-02T00:17:49.005Z,101646.91
2022-09-02T00:23:19.387Z,101646.16
2022-09-02T00:28:38.915Z,101645.95
2022-09-02T00:34:10.455Z,101648.20
2022-09-02T00:39:30.493Z,101647.60
2022-09-02T00:44:58.068Z,101646.27
2022-09-02T00:50:30.121Z,101644.73
2022-09-02T00:55:50.743Z,101646.13
2022-09-02T01:01:10.060Z,101641.75
2022-09-02T01:06:40.580Z,101641.34
2022-09-02T01:12:34.369Z,101637.83
2022-09-02T01:17:49.704Z,101639.39
2022-09-02T01:23:06.189Z,101641.91
2022-09-02T01:28:24.516Z,101645.00
2022-09-02T01:33:53.529Z,101649.88
2022-09-02T01:39:05.570Z,101655.13
2022-09-02T01:44:21.975Z,101656.45
2022-09-02T01:49:44.350Z,101654.65
2022-09-02T01:55:00.966Z,101657.80
2022-09-02T02:00:16.794Z,101655.50
2022-09-02T02:05:27.720Z,101651.75
2022-09-02T02:10:54.591Z,101649.33
2022-09-02T02:16:19.713Z,101646.52
2022-09-02T02:21:47.743Z,101652.64
2022-09-02T02:27:15.826Z,101655.09
2022-09-02T02:32:38.059Z,101657.63
2022-09-02T02:37:55.503Z,101659.61
2022-09-02T02:43:22.313Z,101660.52
2022-09-02T02:48:39.865Z,101660.55
2022-09-02T02:53:51.853Z,101664.24
2022-09-02T02:59:03.804Z,101662.13
2022-09-02T03:04:22.222Z,101660.73
2022-09-02T03:09:39.561Z,101662.11
2022-09-02T03:15:09.768Z,101663.30
2022-09-02T03:20:19.461Z,101664.14
2022-09-02T03:25:36.114Z,101660.19
2022-09-02T03:30:50.191Z,101657.63
2022-09-02T03:35:58.091Z,101656.95
2022-09-02T03:41:08.889Z,101661.06
2022-09-02T03:46:16.584Z,101669.51
2022-09-02T03:51:28.110Z,101673.31
2022-09-02T03:56:36.623Z,101677.20
2022-09-02T04:02:06.289Z,101681.67
2022-09-02T04:07:25.290Z,101685.60
2022-09-02T04:12:46.943Z,101680.80
2022-09-02T04:18:39.282Z,101684.54
2022-09-02T04:24:09.613Z,101686.66
2022-09-02T04:29:19.159Z,101692.49
2022-09-02T04:34:47.000Z,101695.95
2022-09-02T04:40:22.092Z,101701.91
2022-09-02T04:45:49.895Z,101697.26
2022-09-02T04:51:18.314Z,101689.02
2022-09-02T04:56:30.460Z,101695.49
2022-09-02T05:01:50.690Z,101692.16
2022-09-02T05:07:12.163Z,101689.62
2022-09-02T05:12:27.681Z,101684.98
2022-09-02T05:17:41.269Z,101688.98
2022-09-02T05:22:50.394Z,101689.95
2022-09-02T05:28:10.550Z,101691.75
2022-09-02T05:33:18.110Z,101694.25
2022-09-02T05:38:35.243Z,101687.50
2022-09-02T05:44:06.447Z,101689.56
2022-09-02T05:49:28.950Z,101690.58
2022-09-02T05:54:47.312Z,101690.00
2022-09-02T06:00:17.978Z,101690.48
2022-09-02T06:05:33.839Z,101696.13
2022-09-02T06:10:52.769Z,101695.96
2022-09-02T06:16:23.347Z,101691.45
2022-09-02T06:21:31.538Z,101692.97
2022-09-02T06:26:40.240Z,101694.89
2022-09-02T06:31:50.081Z,101688.48
2022-09-02T06:37:01.648Z,101689.27
2022-09-02T06:42:12.651Z,101692.48
2022-09-02T06:47:38.199Z,101694.59
2022-09-02T06:52:55.610Z,101691.95
2022-09-02T06:58:14.194Z,101696.91
2022-09-02T07:04:00.518Z,101702.14
2022-09-02T07:09:10.800Z,101702.52
2022-09-02T07:14:29.996Z,101703.85
2022-09-02T07:19:41.141Z,101705.59
2022-09-02T07:24:57.232Z,101709.11
2022-09-02T07:30:16.028Z,101707.64
2022-09-02T07:35:47.270Z,101704.41
2022-09-02T07:41:14.993Z,101702.93
2022-09-02T07:46:22.780Z,101701.23
2022-09-02T07:51:31.058Z,101706.55
2022-09-02T07:56:41.383Z,101705.20
2022-09-02T08:01:49.853Z,101702.55
2022-09-02T08:07:01.143Z,101698.73
2022-09-02T08:12:10.974Z,101709.00
2022-09-02T08:17:22.220Z,101714.42
2022-09-02T08:27:50.768Z,101720.25
2022-09-02T08:33:25.196Z,101714.48
2022-09-02T08:38:52.685Z,101713.70
2022-09-02T08:44:06.492Z,101707.17
2022-09-02T08:49:26.690Z,101712.25
2022-09-02T08:54:42.248Z,101704.95
2022-09-02T08:59:55.650Z,101699.71
2022-09-02T09:05:24.781Z,101700.84
2022-09-02T09:10:57.239Z,101702.42
2022-09-02T09:16:30.327Z,101696.83
2022-09-02T09:21:49.800Z,101690.19
2022-09-02T09:27:19.585Z,101692.97
2022-09-02T09:32:31.238Z,101697.28
2022-09-02T09:37:50.703Z,101699.44
2022-09-02T09:43:18.221Z,101694.75
2022-09-02T09:48:29.453Z,101692.08
2022-09-02T09:53:40.540Z,101683.94
2022-09-02T09:58:55.560Z,101685.68
2022-09-02T10:04:39.425Z,101680.27
2022-09-02T10:09:45.030Z,101685.06
2022-09-02T10:14:55.002Z,101684.44
2022-09-02T10:20:12.838Z,101687.78
2022-09-02T10:25:31.276Z,101685.99
2022-09-02T10:30:48.512Z,101685.22
2022-09-02T10:36:06.797Z,101682.12
2022-09-02T10:41:38.253Z,101678.79
2022-09-02T10:47:00.864Z,101672.06
2022-09-02T10:52:41.773Z,101670.17
2022-09-02T10:57:54.103Z,101676.17
2022-09-02T11:03:11.962Z,101671.80
2022-09-02T11:08:38.025Z,101665.09
2022-09-02T11:13:58.992Z,101660.95
2022-09-02T11:19:15.316Z,101654.06
2022-09-02T11:24:28.360Z,101648.89
2022-09-02T11:29:56.934Z,101640.80
2022-09-02T11:35:11.634Z,101643.21
2022-09-02T11:40:34.894Z,101635.41
2022-09-02T11:46:31.523Z,101635.30
2022-09-02T11:52:03.695Z,101630.13
2022-09-02T11:57:22.247Z,101622.27
2022-09-02T12:02:53.282Z,101612.98
2022-09-02T12:08:15.346Z,101603.13
2022-09-02T12:13:41.335Z,101600.95
2022-09-02T12:19:26.290Z,101597.84
2022-09-02T12:24:55.754Z,101600.91
2022-09-02T12:30:05.588Z,101595.38
2022-09-02T12:35:17.364Z,101588.65
2022-09-02T12:40:34.124Z,101593.55
2022-09-02T12:46:19.539Z,101595.64
2022-09-02T12:51:55.131Z,101593.33
2022-09-02T12:57:39.549Z,101590.19
2022-09-02T13:03:00.958Z,101584.20
2022-09-02T13:08:47.734Z,101581.95
2022-09-02T13:14:37.236Z,101573.96
2022-09-02T13:20:11.380Z,101569.65
2022-09-02T13:25:47.192Z,101572.30
2022-09-02T13:31:21.049Z,101574.60
2022-09-02T13:36:44.560Z,101573.52
2022-09-02T13:41:52.623Z,101576.80
2022-09-02T13:47:16.129Z,101568.77
2022-09-02T13:53:25.885Z,101562.60
2022-09-02T13:58:03.769Z,101563.02
2022-09-02T14:03:15.715Z,101561.53
2022-09-02T14:08:27.628Z,101555.67
2022-09-02T14:13:51.272Z,101564.32
2022-09-02T14:19:15.303Z,101560.46
2022-09-02T14:24:25.897Z,101550.92
2022-09-02T14:29:37.116Z,101544.02
2022-09-02T14:34:46.109Z,101544.18
2022-09-02T14:40:11.973Z,101545.34
2022-09-02T14:45:30.377Z,101545.39
2022-09-02T14:51:02.846Z,101540.84
2022-09-02T14:56:13.032Z,101545.81
2022-09-02T15:01:20.827Z,101546.44
2022-09-02T15:06:28.399Z,101547.48
2022-09-02T15:11:37.885Z,101541.36
2022-09-02T15:16:45.365Z,101542.11
2022-09-02T15:21:52.920Z,101535.70
2022-09-02T15:27:31.359Z,101536.88
2022-09-02T15:32:53.017Z,101535.64
2022-09-02T15:38:03.306Z,101537.60
2022-09-02T15:43:24.921Z,101543.52
2022-09-02T15:48:40.088Z,101539.36
2022-09-02T15:53:55.091Z,101536.33
2022-09-02T15:59:09.414Z,101538.38
2022-09-02T16:04:19.555Z,101539.96
2022-09-02T16:09:53.435Z,101543.37
2022-09-02T16:15:24.112Z,101546.00
2022-09-02T16:20:30.059Z,101547.18
2022-09-02T16:26:16.288Z,101545.10
2022-09-02T16:31:29.867Z,101538.37
2022-09-02T16:36:42.374Z,101538.66
2022-09-02T16:41:54.564Z,101530.42
2022-09-02T16:47:01.986Z,101532.73
2022-09-02T16:52:12.056Z,101531.01
2022-09-02T16:57:19.550Z,101529.47
2022-09-02T17:02:25.512Z,101528.08
2022-09-02T17:07:33.037Z,101528.73
2022-09-02T17:12:48.474Z,101528.36
2022-09-02T17:17:58.381Z,101529.92
2022-09-02T17:23:09.040Z,101530.51
2022-09-02T17:28:47.548Z,101528.17
2022-09-02T17:33:57.399Z,101532.23
2022-09-02T17:39:10.008Z,101537.04
2022-09-02T17:44:18.106Z,101541.38
2022-09-02T17:49:46.059Z,101545.15
2022-09-02T17:54:55.564Z,101544.96
2022-09-02T18:00:12.149Z,101549.62
2022-09-02T18:05:29.169Z,101555.28
2022-09-02T18:10:40.163Z,101554.30
2022-09-02T18:16:23.500Z,101559.45
2022-09-02T18:21:43.817Z,101563.27
2022-09-02T18:33:13.690Z,101566.66
2022-09-02T18:38:57.987Z,101564.73
2022-09-02T18:44:40.846Z,101566.88
2022-09-02T18:49:50.630Z,101566.30
2022-09-02T18:55:21.110Z,101565.45
2022-09-02T19:00:54.395Z,101565.00
2022-09-02T19:06:10.097Z,101560.45
2022-09-02T19:11:34.543Z,101556.04
2022-09-02T19:16:48.145Z,101553.29
2022-09-02T19:22:03.236Z,101556.90
2022-09-02T19:27:18.868Z,101563.55
2022-09-02T19:32:36.118Z,101564.20
2022-09-02T19:37:47.594Z,101564.11
2022-09-02T19:42:58.795Z,101565.14
2022-09-02T19:48:11.991Z,101570.35
2022-09-02T19:53:32.480Z,101580.09
2022-09-02T19:58:41.031Z,101582.89
2022-09-02T20:03:49.257Z,101576.52
2022-09-02T20:08:59.489Z,101578.70
2022-09-02T20:14:09.982Z,101576.99
2022-09-02T20:19:26.892Z,101579.85
2022-09-02T20:24:38.698Z,101580.41
2022-09-02T20:30:11.538Z,101580.54
2022-09-02T20:36:45.794Z,101585.66
2022-09-02T20:42:33.198Z,101585.17
2022-09-02T20:47:55.874Z,101585.70
2022-09-02T20:53:20.902Z,101587.39
2022-09-02T20:58:51.259Z,101588.13
2022-09-02T21:04:30.894Z,101589.23
2022-09-02T21:09:51.100Z,101593.20
2022-09-02T21:15:28.812Z,101591.77
2022-09-02T21:28:32.978Z,101606.73
2022-09-02T21:41:26.985Z,101605.67
2022-09-02T21:47:01.916Z,101607.00
2022-09-02T21:52:34.340Z,101604.59
2022-09-02T21:58:11.752Z,101605.52
2022-09-02T22:03:28.165Z,101611.48
2022-09-02T22:08:46.366Z,101609.31
2022-09-02T22:14:33.777Z,101608.38
2022-09-02T22:20:33.663Z,101607.31
2022-09-02T22:25:44.067Z,101608.96
2022-09-02T22:30:58.382Z,101598.55
2022-09-02T22:36:36.816Z,101601.18
2022-09-02T22:42:22.113Z,101595.34
2022-09-02T22:47:52.477Z,101595.56
2022-09-02T22:53:13.994Z,101594.44
2022-09-02T22:58:59.049Z,101594.17
2022-09-02T23:04:40.360Z,101595.83
2022-09-02T23:10:00.893Z,101597.85
2022-09-02T23:15:25.046Z,101599.65
2022-09-02T23:20:48.590Z,101599.85
2022-09-02T23:26:20.215Z,101596.48
2022-09-02T23:31:54.464Z,101590.86
2022-09-02T23:37:17.264Z,101586.69
2022-09-02T23:42:45.203Z,101590.47
2022-09-02T23:48:19.178Z,101594.20
2022-09-02T23:54:14.979Z,101597.17
